Time;durP1;ratioP1;P1;durP2;ratioP2;P2;SDS_P1;SDS_P2;PMS_P1;PMS_P2;Temp;Humidity;BMP_temperature;BMP_pressure;BME280_temperature;BME280_humidity;BME280_pressure;Samples;Min_cycle;Max_cycle;Signal;HPM_P1;HPM_P2
2023/04/04 00:00:19;;;;;;;0.85;0.43;;;3.70;99.90;;;;;;5095645;28;20414;-54
2023/04/04 00:02:46;;;;;;;0.98;0.40;;;3.60;99.90;;;;;;5095542;28;20429;-50
2023/04/04 00:05:14;;;;;;;0.80;0.50;;;3.50;99.90;;;;;;5095343;28;20902;-49
2023/04/04 00:07:41;;;;;;;1.50;0.50;;;3.30;99.90;;;;;;5094599;28;20433;-47
2023/04/04 00:10:09;;;;;;;0.82;0.40;;;3.40;99.90;;;;;;5094194;28;20475;-51
2023/04/04 00:12:38;;;;;;;0.80;0.40;;;3.30;99.90;;;;;;5094657;28;20466;-49
2023/04/04 00:15:06;;;;;;;0.73;0.50;;;3.10;99.90;;;;;;5095152;28;20483;-48
2023/04/04 00:17:33;;;;;;;1.42;0.55;;;3.10;99.90;;;;;;5095574;28;20422;-47
2023/04/04 00:20:00;;;;;;;1.50;0.40;;;3.10;99.90;;;;;;5095120;28;20421;-49
2023/04/04 00:22:27;;;;;;;1.00;0.50;;;3.20;99.90;;;;;;5095253;28;20425;-49
2023/04/04 00:24:54;;;;;;;0.70;0.45;;;3.20;99.90;;;;;;5095453;28;20495;-48
2023/04/04 00:27:21;;;;;;;1.00;0.50;;;3.30;99.90;;;;;;5095337;28;20719;-50
2023/04/04 00:29:50;;;;;;;1.00;0.50;;;3.20;99.90;;;;;;5094510;28;20418;-48
2023/04/04 00:32:17;;;;;;;1.50;0.50;;;3.30;99.90;;;;;;5095017;28;20439;-52
2023/04/04 00:34:44;;;;;;;1.15;0.50;;;3.40;99.90;;;;;;5095125;28;20422;-47
2023/04/04 00:37:11;;;;;;;1.33;0.50;;;3.50;99.90;;;;;;5095183;28;20717;-47
2023/04/04 00:39:42;;;;;;;0.73;0.50;;;3.50;99.90;;;;;;5094396;28;20525;-51
2023/04/04 00:42:09;;;;;;;0.90;0.50;;;3.50;99.90;;;;;;5095003;28;20437;-52
2023/04/04 00:44:36;;;;;;;0.98;0.50;;;3.40;99.90;;;;;;5096333;28;21046;-51
2023/04/04 00:47:04;;;;;;;0.90;0.50;;;3.30;99.90;;;;;;5098969;28;20430;-52
2023/04/04 00:49:33;;;;;;;0.90;0.50;;;3.20;99.90;;;;;;5098702;28;20829;-48
2023/04/04 00:52:00;;;;;;;1.15;0.50;;;3.10;99.90;;;;;;5098910;28;20434;-49
2023/04/04 00:54:27;;;;;;;1.10;0.50;;;3.10;99.90;;;;;;5098298;28;20417;-50
2023/04/04 00:56:54;;;;;;;1.10;0.40;;;3.40;99.90;;;;;;5098737;28;20437;-50
2023/04/04 00:59:26;;;;;;;1.70;0.50;;;3.50;99.90;;;;;;5098539;28;20744;-54
2023/04/04 01:01:53;;;;;;;1.10;0.50;;;3.30;99.90;;;;;;5098721;28;20762;-53
2023/04/04 01:04:22;;;;;;;0.80;0.50;;;3.00;99.90;;;;;;5096910;28;20893;-54
2023/04/04 01:06:49;;;;;;;1.67;0.68;;;2.90;99.90;;;;;;5098783;28;20434;-54
2023/04/04 01:09:17;;;;;;;1.60;0.50;;;2.70;99.90;;;;;;5097495;28;20414;-53
2023/04/04 01:11:44;;;;;;;0.80;0.50;;;2.60;99.90;;;;;;5098595;28;21039;-51
2023/04/04 01:14:11;;;;;;;1.10;0.50;;;2.40;99.90;;;;;;5097650;28;20417;-50
2023/04/04 01:16:39;;;;;;;1.15;0.50;;;2.40;99.90;;;;;;5097006;28;20429;-47
2023/04/04 01:19:09;;;;;;;1.40;0.50;;;2.60;99.90;;;;;;5097210;28;20421;-51
2023/04/04 01:21:38;;;;;;;1.30;0.60;;;2.60;99.90;;;;;;5096570;28;20484;-53
2023/04/04 01:24:08;;;;;;;1.10;0.60;;;2.60;99.90;;;;;;5097092;28;20422;-49
2023/04/04 01:26:36;;;;;;;0.98;0.50;;;2.70;99.90;;;;;;5097149;28;20430;-53
2023/04/04 01:29:03;;;;;;;2.17;0.60;;;2.60;99.90;;;;;;5096743;28;20760;-50
2023/04/04 01:31:36;;;;;;;0.70;0.50;;;2.50;99.90;;;;;;5098087;28;20434;-52
2023/04/04 01:34:10;;;;;;;0.93;0.70;;;2.40;99.90;;;;;;5098244;28;20841;-52
2023/04/04 01:36:45;;;;;;;1.30;0.50;;;2.50;99.90;;;;;;5098576;28;20448;-49
2023/04/04 01:39:22;;;;;;;0.90;0.60;;;2.50;99.90;;;;;;5097949;28;20496;-51
2023/04/04 01:41:51;;;;;;;1.00;0.60;;;2.60;99.90;;;;;;5097841;28;20434;-48
2023/04/04 01:44:18;;;;;;;1.40;0.50;;;2.50;99.90;;;;;;5097369;28;20475;-49
2023/04/04 01:46:45;;;;;;;1.30;0.50;;;2.40;99.90;;;;;;5097598;28;20853;-52
2023/04/04 01:49:12;;;;;;;2.20;0.60;;;2.50;99.90;;;;;;5097737;28;20433;-46
2023/04/04 01:51:40;;;;;;;0.90;0.60;;;2.60;99.90;;;;;;5098274;28;20445;-48
2023/04/04 01:54:07;;;;;;;0.80;0.60;;;2.80;99.90;;;;;;5098053;28;20430;-48
2023/04/04 01:56:34;;;;;;;1.83;0.60;;;2.80;99.90;;;;;;5097402;28;20418;-48
2023/04/04 01:59:02;;;;;;;0.70;0.55;;;2.60;99.90;;;;;;5097717;28;20833;-48
2023/04/04 02:01:29;;;;;;;1.00;0.50;;;2.40;99.90;;;;;;5097548;28;20425;-46
2023/04/04 02:03:57;;;;;;;1.20;0.55;;;2.30;99.90;;;;;;5097730;28;20441;-47
2023/04/04 02:06:24;;;;;;;1.20;0.60;;;2.30;99.90;;;;;;5097775;28;20826;-49
2023/04/04 02:08:51;;;;;;;1.37;0.60;;;2.10;99.90;;;;;;5097435;28;20927;-49
2023/04/04 02:11:21;;;;;;;0.98;0.52;;;2.00;99.90;;;;;;5096926;28;20702;-50
2023/04/04 02:13:49;;;;;;;0.80;0.60;;;2.00;99.90;;;;;;5097225;28;20418;-53
2023/04/04 02:16:18;;;;;;;1.00;0.60;;;2.10;99.90;;;;;;5096524;28;20854;-49
2023/04/04 02:18:45;;;;;;;0.90;0.50;;;2.10;99.90;;;;;;5097678;28;20440;-52
2023/04/04 02:21:12;;;;;;;0.70;0.50;;;2.10;99.90;;;;;;5097446;28;20421;-47
2023/04/04 02:23:39;;;;;;;0.80;0.60;;;2.00;99.90;;;;;;5097613;28;20445;-48
2023/04/04 02:26:06;;;;;;;1.02;0.60;;;2.00;99.90;;;;;;5097321;28;20422;-52
2023/04/04 02:28:33;;;;;;;1.00;0.70;;;2.20;99.90;;;;;;5096351;28;20437;-52
2023/04/04 02:31:02;;;;;;;0.80;0.57;;;2.20;99.90;;;;;;5096121;28;20418;-50
2023/04/04 02:33:31;;;;;;;2.30;0.55;;;2.20;99.90;;;;;;5096387;28;20445;-47
2023/04/04 02:35:58;;;;;;;1.00;0.50;;;2.10;99.90;;;;;;5096804;28;20837;-48
2023/04/04 02:38:25;;;;;;;1.30;0.60;;;2.20;99.90;;;;;;5097173;28;20446;-48
2023/04/04 02:40:52;;;;;;;1.00;0.60;;;2.20;99.90;;;;;;5096502;28;20509;-48
2023/04/04 02:43:19;;;;;;;1.20;0.50;;;2.20;99.90;;;;;;5095838;28;20418;-50
2023/04/04 02:45:48;;;;;;;0.73;0.50;;;2.20;99.90;;;;;;5095634;28;20737;-51
2023/04/04 02:48:15;;;;;;;0.93;0.50;;;2.00;99.90;;;;;;5095204;28;20425;-50
2023/04/04 02:50:46;;;;;;;1.10;0.60;;;1.80;99.90;;;;;;5094995;28;20495;-49
2023/04/04 02:53:13;;;;;;;1.10;0.60;;;1.70;99.90;;;;;;5095687;28;20430;-48
2023/04/04 02:55:41;;;;;;;1.10;0.60;;;1.60;99.90;;;;;;5096195;28;20426;-46
2023/04/04 02:58:08;;;;;;;1.00;0.60;;;1.80;99.90;;;;;;5101303;28;20432;-50
2023/04/04 03:00:35;;;;;;;1.20;0.60;;;1.80;99.90;;;;;;5116921;28;20424;-49
2023/04/04 03:03:02;;;;;;;1.25;0.50;;;1.90;99.90;;;;;;5117084;28;20828;-49
2023/04/04 03:05:30;;;;;;;1.20;0.60;;;2.00;99.90;;;;;;5116426;28;20828;-52
2023/04/04 03:07:59;;;;;;;1.20;0.60;;;2.20;99.90;;;;;;5115351;28;20522;-47
2023/04/04 03:10:28;;;;;;;1.20;0.60;;;2.20;99.90;;;;;;5096298;28;20813;-47
2023/04/04 03:12:56;;;;;;;1.00;0.60;;;2.20;99.90;;;;;;5095576;28;20503;-52
2023/04/04 03:15:23;;;;;;;1.30;0.50;;;2.10;99.90;;;;;;5093813;28;20474;-54
2023/04/04 03:17:50;;;;;;;1.10;0.60;;;1.90;99.90;;;;;;5112428;28;20439;-48
2023/04/04 03:20:17;;;;;;;0.90;0.60;;;1.70;99.90;;;;;;5115950;28;20420;-49
2023/04/04 03:22:45;;;;;;;1.20;0.60;;;1.70;99.90;;;;;;5115893;28;20428;-47
2023/04/04 03:25:14;;;;;;;1.02;0.60;;;1.70;99.90;;;;;;5115712;28;20851;-47
2023/04/04 03:27:43;;;;;;;4.28;0.60;;;1.70;99.90;;;;;;5115734;28;20439;-53
2023/04/04 03:30:11;;;;;;;1.10;0.60;;;1.90;99.90;;;;;;5115838;28;20427;-53
2023/04/04 03:32:39;;;;;;;1.40;0.60;;;1.80;99.90;;;;;;5115600;28;20450;-49
2023/04/04 03:35:07;;;;;;;0.90;0.60;;;1.70;99.90;;;;;;5116059;28;20416;-52
2023/04/04 03:37:34;;;;;;;1.30;0.50;;;1.80;99.90;;;;;;5115493;28;20449;-53
2023/04/04 03:40:01;;;;;;;1.70;0.60;;;1.80;99.90;;;;;;5115584;28;20442;-51
2023/04/04 03:42:33;;;;;;;0.70;0.60;;;1.90;99.90;;;;;;5116052;28;20423;-45
2023/04/04 03:45:01;;;;;;;1.50;0.60;;;1.90;99.90;;;;;;5116271;28;20820;-53
2023/04/04 03:47:28;;;;;;;1.20;0.60;;;1.80;99.90;;;;;;5115483;28;20436;-49
2023/04/04 03:49:56;;;;;;;1.35;0.70;;;1.60;99.90;;;;;;5115083;28;20416;-52
2023/04/04 03:52:23;;;;;;;0.90;0.60;;;1.50;99.90;;;;;;5114098;28;20633;-49
2023/04/04 03:54:50;;;;;;;1.00;0.70;;;1.40;99.90;;;;;;5115706;28;20420;-51
2023/04/04 03:57:17;;;;;;;0.95;0.60;;;1.40;99.90;;;;;;5114647;28;20412;-51
2023/04/04 03:59:46;;;;;;;2.42;0.70;;;1.50;99.90;;;;;;5115484;28;20412;-46
2023/04/04 04:02:13;;;;;;;1.05;0.60;;;1.60;99.90;;;;;;5115258;28;20466;-53
2023/04/04 04:04:40;;;;;;;1.10;0.70;;;1.50;99.90;;;;;;5115202;28;20857;-52
2023/04/04 04:07:07;;;;;;;0.90;0.70;;;1.60;99.90;;;;;;5114887;28;20878;-49
2023/04/04 04:09:35;;;;;;;1.40;0.60;;;1.50;99.90;;;;;;5115833;28;20423;-48
2023/04/04 04:12:02;;;;;;;1.00;0.60;;;1.50;99.90;;;;;;5115253;28;20424;-47
2023/04/04 04:14:29;;;;;;;1.10;0.60;;;1.50;99.90;;;;;;5115215;28;20835;-48
2023/04/04 04:16:57;;;;;;;0.80;0.60;;;1.70;99.90;;;;;;5115232;28;20422;-48
2023/04/04 04:19:25;;;;;;;0.93;0.60;;;1.70;99.90;;;;;;5114117;28;20418;-49
2023/04/04 04:21:52;;;;;;;1.50;0.60;;;1.80;99.90;;;;;;5114400;28;20431;-51
2023/04/04 04:24:19;;;;;;;1.30;0.70;;;1.80;99.90;;;;;;5114028;28;20407;-52
2023/04/04 04:26:46;;;;;;;1.00;0.60;;;1.80;99.90;;;;;;5112734;28;20489;-49
2023/04/04 04:29:13;;;;;;;1.52;0.70;;;1.80;99.90;;;;;;5113929;28;20431;-50
2023/04/04 04:31:40;;;;;;;1.05;0.68;;;1.70;99.90;;;;;;5114162;28;20427;-47
2023/04/04 04:34:09;;;;;;;1.50;0.70;;;1.80;99.90;;;;;;5114602;28;20424;-46
2023/04/04 04:36:36;;;;;;;1.30;0.70;;;1.70;99.90;;;;;;5115082;28;20527;-49
2023/04/04 04:39:03;;;;;;;1.30;0.60;;;1.70;99.90;;;;;;5114985;28;20420;-50
2023/04/04 04:41:31;;;;;;;1.05;0.70;;;1.70;99.90;;;;;;5115394;28;20424;-50
2023/04/04 04:43:58;;;;;;;1.00;0.60;;;1.90;99.90;;;;;;5115298;28;20439;-49
2023/04/04 04:46:25;;;;;;;3.38;0.68;;;1.90;99.90;;;;;;5113902;28;20431;-51
2023/04/04 04:48:52;;;;;;;1.40;0.70;;;1.90;99.90;;;;;;5113964;28;20420;-53
2023/04/04 04:51:20;;;;;;;0.90;0.70;;;1.80;99.90;;;;;;5114787;28;20428;-46
2023/04/04 04:53:47;;;;;;;1.10;0.70;;;1.80;99.90;;;;;;5113853;28;20423;-49
2023/04/04 04:56:14;;;;;;;1.40;0.73;;;1.70;99.90;;;;;;5114703;28;20428;-51
2023/04/04 04:58:43;;;;;;;1.00;0.70;;;1.60;99.90;;;;;;5115331;28;20408;-49
2023/04/04 05:01:10;;;;;;;2.03;0.80;;;1.60;99.90;;;;;;5114779;28;20460;-50
2023/04/04 05:03:38;;;;;;;1.90;0.70;;;1.70;99.90;;;;;;5112487;28;20416;-50
2023/04/04 05:06:05;;;;;;;1.70;0.80;;;1.70;99.90;;;;;;5114906;28;20470;-50
2023/04/04 05:08:34;;;;;;;1.60;0.70;;;2.10;99.90;;;;;;5113997;28;20847;-52
2023/04/04 05:11:01;;;;;;;2.42;0.70;;;2.20;99.90;;;;;;5113755;28;20420;-45
2023/04/04 05:13:28;;;;;;;1.90;0.73;;;2.30;99.90;;;;;;5114162;28;20424;-48
2023/04/04 05:15:55;;;;;;;1.10;0.60;;;2.40;99.90;;;;;;5112923;28;20404;-46
2023/04/04 05:18:22;;;;;;;1.23;0.70;;;2.40;99.90;;;;;;5110683;28;21041;-47
2023/04/04 05:20:53;;;;;;;1.80;0.70;;;2.40;99.90;;;;;;5111473;28;21029;-48
2023/04/04 05:23:21;;;;;;;1.35;0.70;;;2.40;99.90;;;;;;5112660;28;20420;-49
2023/04/04 05:25:52;;;;;;;1.53;0.80;;;2.30;99.90;;;;;;5111450;28;20438;-52
2023/04/04 05:28:19;;;;;;;0.90;0.70;;;2.30;99.90;;;;;;5113066;28;20435;-48
2023/04/04 05:30:46;;;;;;;1.40;0.80;;;2.00;99.90;;;;;;5114671;28;20412;-50
2023/04/04 05:33:13;;;;;;;1.10;0.80;;;2.00;99.90;;;;;;5115747;28;20461;-49
2023/04/04 05:35:41;;;;;;;1.70;0.90;;;1.80;99.90;;;;;;5102442;28;20441;-49
2023/04/04 05:38:08;;;;;;;1.58;0.80;;;1.80;99.90;;;;;;5095884;28;20520;-49
2023/04/04 05:40:35;;;;;;;1.10;0.80;;;1.80;99.90;;;;;;5095809;28;20425;-51
2023/04/04 05:43:04;;;;;;;1.20;0.90;;;1.70;99.90;;;;;;5096441;28;20483;-48
2023/04/04 05:45:31;;;;;;;1.50;0.80;;;1.80;99.90;;;;;;5094848;28;20436;-48
2023/04/04 05:47:58;;;;;;;2.03;0.80;;;2.10;99.90;;;;;;5095981;28;20433;-51
2023/04/04 05:50:25;;;;;;;1.50;0.70;;;2.10;99.90;;;;;;5095615;28;20422;-47
2023/04/04 05:52:55;;;;;;;2.60;0.80;;;2.40;99.90;;;;;;5093447;28;20440;-57
2023/04/04 05:55:23;;;;;;;1.13;0.70;;;2.30;99.90;;;;;;5094412;28;20432;-46
2023/04/04 05:57:50;;;;;;;1.35;0.80;;;2.80;99.90;;;;;;5095275;28;20456;-49
2023/04/04 06:00:20;;;;;;;2.00;0.80;;;2.80;99.90;;;;;;5096111;28;20414;-51
2023/04/04 06:02:47;;;;;;;1.10;0.77;;;2.80;99.90;;;;;;5096776;28;20478;-52
2023/04/04 06:05:14;;;;;;;1.80;0.80;;;2.80;99.90;;;;;;5097093;28;20422;-48
2023/04/04 06:07:41;;;;;;;1.10;0.80;;;2.90;99.90;;;;;;5103643;28;22772;-45
2023/04/04 06:10:09;;;;;;;1.27;0.70;;;2.80;99.90;;;;;;5104106;28;20422;-49
2023/04/04 06:12:36;;;;;;;1.98;0.80;;;3.00;99.90;;;;;;5108437;28;20439;-47
2023/04/04 06:15:04;;;;;;;1.60;0.80;;;3.30;99.90;;;;;;5109012;28;20426;-48
2023/04/04 06:17:35;;;;;;;1.40;0.80;;;3.40;99.90;;;;;;5104637;28;20424;-47
2023/04/04 06:20:03;;;;;;;1.90;0.90;;;3.50;99.90;;;;;;5111726;28;20433;-48
2023/04/04 06:22:31;;;;;;;2.20;0.80;;;3.30;99.90;;;;;;5095356;28;20425;-51
2023/04/04 06:24:58;;;;;;;2.30;0.80;;;3.10;99.90;;;;;;5093777;28;20432;-46
2023/04/04 06:27:25;;;;;;;1.10;0.80;;;3.30;99.90;;;;;;5101984;28;20519;-46
2023/04/04 06:29:52;;;;;;;1.10;0.80;;;3.00;99.90;;;;;;5094378;28;20434;-47
2023/04/04 06:32:20;;;;;;;1.20;0.80;;;2.70;99.90;;;;;;5100592;28;20418;-51
2023/04/04 06:34:49;;;;;;;1.40;0.90;;;2.40;99.90;;;;;;5094542;28;20414;-46
2023/04/04 06:37:16;;;;;;;2.70;0.90;;;2.20;99.90;;;;;;5094492;28;20430;-45
2023/04/04 06:39:43;;;;;;;2.00;0.80;;;2.20;99.90;;;;;;5092751;28;20913;-46
2023/04/04 06:42:11;;;;;;;1.52;0.80;;;2.40;99.90;;;;;;5095551;28;20425;-48
2023/04/04 06:44:38;;;;;;;1.10;0.80;;;2.70;99.90;;;;;;5094095;28;20868;-49
2023/04/04 06:47:05;;;;;;;2.33;0.80;;;2.80;99.90;;;;;;5093716;28;20429;-47
2023/04/04 06:49:33;;;;;;;1.17;0.80;;;2.70;99.90;;;;;;5094545;28;20456;-48
2023/04/04 06:52:02;;;;;;;1.63;0.80;;;2.70;99.90;;;;;;5091278;28;20429;-46
2023/04/04 06:54:30;;;;;;;1.30;0.80;;;2.90;99.90;;;;;;5091930;28;20448;-52
2023/04/04 06:56:57;;;;;;;2.65;1.00;;;2.80;99.90;;;;;;5092102;28;20729;-48
2023/04/04 06:59:24;;;;;;;2.50;0.82;;;2.60;99.90;;;;;;5092722;28;20683;-46
2023/04/04 07:01:51;;;;;;;1.08;0.73;;;2.50;99.90;;;;;;5090557;28;20428;-49
2023/04/04 07:04:19;;;;;;;2.22;0.90;;;2.50;99.90;;;;;;5088494;28;20424;-57
2023/04/04 07:06:46;;;;;;;2.70;0.80;;;2.70;99.90;;;;;;5089842;28;20487;-57
2023/04/04 07:09:15;;;;;;;1.83;0.80;;;2.80;99.90;;;;;;5090344;28;20430;-55
2023/04/04 07:11:42;;;;;;;1.73;0.80;;;2.80;99.90;;;;;;5091954;28;20422;-53
2023/04/04 07:14:09;;;;;;;1.85;0.70;;;3.00;99.90;;;;;;5092116;28;20977;-57
2023/04/04 07:16:36;;;;;;;1.33;0.80;;;3.10;99.90;;;;;;5092399;28;20439;-54
2023/04/04 07:19:04;;;;;;;1.10;0.80;;;3.10;99.90;;;;;;5097396;28;20632;-55
2023/04/04 07:21:31;;;;;;;1.20;0.70;;;3.20;99.90;;;;;;5111207;28;20984;-57
2023/04/04 07:23:59;;;;;;;1.50;0.77;;;3.30;99.90;;;;;;5110794;28;20504;-56
2023/04/04 07:26:27;;;;;;;1.30;0.70;;;3.40;99.90;;;;;;5109554;28;20426;-56
2023/04/04 07:28:54;;;;;;;1.70;0.80;;;3.50;99.90;;;;;;5111851;28;20882;-54
2023/04/04 07:31:21;;;;;;;2.00;0.80;;;3.60;99.90;;;;;;5112523;28;20849;-56
2023/04/04 07:33:48;;;;;;;1.60;0.70;;;3.70;99.90;;;;;;5112450;28;20435;-57
2023/04/04 07:36:15;;;;;;;2.10;0.70;;;3.80;99.90;;;;;;5111661;28;20839;-54
2023/04/04 07:38:42;;;;;;;1.33;0.80;;;3.90;99.90;;;;;;5112078;28;20419;-56
2023/04/04 07:41:10;;;;;;;1.05;0.70;;;4.00;99.90;;;;;;5112401;28;20424;-57
2023/04/04 07:43:39;;;;;;;1.20;0.60;;;3.90;99.90;;;;;;5114898;28;20831;-56
2023/04/04 07:46:06;;;;;;;1.00;0.70;;;3.90;99.90;;;;;;5112329;28;20424;-57
2023/04/04 07:48:33;;;;;;;1.80;0.80;;;4.00;99.90;;;;;;5111803;28;20431;-55
2023/04/04 07:51:03;;;;;;;1.20;0.80;;;4.00;99.90;;;;;;5113687;28;20808;-54
2023/04/04 07:53:30;;;;;;;1.23;0.70;;;4.00;99.90;;;;;;5112829;28;20424;-57
2023/04/04 07:55:57;;;;;;;1.10;0.60;;;4.00;99.90;;;;;;5110360;28;20650;-57
2023/04/04 07:58:25;;;;;;;1.10;0.70;;;4.10;99.90;;;;;;5112149;28;20420;-56
2023/04/04 08:00:53;;;;;;;0.90;0.70;;;4.20;99.90;;;;;;5111263;28;20416;-58
2023/04/04 08:03:22;;;;;;;1.25;0.70;;;4.30;99.90;;;;;;5113125;28;20408;-56
2023/04/04 08:05:50;;;;;;;1.58;0.70;;;4.30;99.90;;;;;;5109071;28;20416;-58
2023/04/04 08:08:17;;;;;;;1.00;0.60;;;4.40;99.90;;;;;;5110991;28;20415;-58
2023/04/04 08:10:45;;;;;;;0.85;0.70;;;4.40;99.90;;;;;;5109513;28;20431;-57
2023/04/04 08:13:12;;;;;;;1.20;0.60;;;4.60;99.90;;;;;;5111574;28;20514;-57
2023/04/04 08:15:39;;;;;;;2.10;0.60;;;4.60;99.90;;;;;;5112571;28;20405;-59
2023/04/04 08:18:08;;;;;;;2.20;0.70;;;4.70;99.90;;;;;;5109903;28;20859;-58
2023/04/04 08:20:35;;;;;;;1.20;0.60;;;4.70;99.90;;;;;;5109559;28;20795;-58
2023/04/04 08:23:03;;;;;;;1.45;0.70;;;4.70;99.90;;;;;;5112831;28;20459;-58
2023/04/04 08:25:30;;;;;;;1.20;0.70;;;4.70;99.90;;;;;;5113856;28;20515;-58
2023/04/04 08:27:57;;;;;;;1.50;0.70;;;4.90;99.90;;;;;;5112356;28;20424;-59
2023/04/04 08:30:24;;;;;;;1.92;0.60;;;5.00;99.90;;;;;;5112429;28;20814;-60
2023/04/04 08:32:51;;;;;;;0.93;0.70;;;5.10;99.90;;;;;;5112864;28;20460;-58
2023/04/04 08:35:20;;;;;;;1.77;0.70;;;5.10;99.90;;;;;;5112680;28;20419;-59
2023/04/04 08:37:47;;;;;;;1.60;0.80;;;5.10;99.90;;;;;;5111330;28;20425;-59
2023/04/04 08:40:14;;;;;;;1.40;0.80;;;5.00;99.90;;;;;;5110304;28;20413;-58
2023/04/04 08:42:43;;;;;;;1.27;0.70;;;5.00;99.90;;;;;;5110235;28;20420;-56
2023/04/04 08:45:12;;;;;;;1.90;0.70;;;5.00;99.90;;;;;;5108717;28;20636;-57
2023/04/04 08:47:41;;;;;;;1.50;0.68;;;5.30;99.90;;;;;;5108964;28;20424;-56
2023/04/04 08:50:09;;;;;;;2.03;0.80;;;5.10;99.90;;;;;;5109862;28;20501;-57
2023/04/04 08:52:38;;;;;;;1.52;0.70;;;5.10;99.90;;;;;;5109575;28;20755;-57
2023/04/04 08:55:07;;;;;;;1.90;0.70;;;5.10;99.90;;;;;;5107944;28;20428;-57
2023/04/04 08:57:34;;;;;;;1.10;0.70;;;5.10;99.90;;;;;;5108737;28;20428;-58
2023/04/04 09:00:04;;;;;;;1.27;0.70;;;5.20;99.90;;;;;;5112011;28;20697;-57
2023/04/04 09:02:36;;;;;;;1.20;0.80;;;5.20;99.90;;;;;;5111329;28;20526;-59
2023/04/04 09:05:04;;;;;;;3.60;0.70;;;5.30;99.90;;;;;;5111454;28;20415;-57
2023/04/04 09:07:32;;;;;;;1.60;0.70;;;5.40;99.90;;;;;;5115880;28;20724;-54
2023/04/04 09:10:01;;;;;;;1.00;0.70;;;5.40;99.90;;;;;;5115425;28;20424;-51
2023/04/04 09:12:31;;;;;;;1.33;0.70;;;5.40;99.90;;;;;;5116610;28;20428;-51
2023/04/04 09:15:00;;;;;;;1.20;0.70;;;5.50;99.90;;;;;;5117372;28;20627;-52
2023/04/04 09:17:27;;;;;;;1.10;0.70;;;5.40;99.50;;;;;;5115082;28;20427;-50
2023/04/04 09:19:55;;;;;;;1.00;0.70;;;5.40;99.80;;;;;;5112326;28;21118;-55
2023/04/04 09:22:22;;;;;;;1.10;0.70;;;5.40;99.40;;;;;;5102124;28;20436;-54
2023/04/04 09:24:52;;;;;;;1.88;0.70;;;5.50;99.90;;;;;;5114224;28;20408;-54
2023/04/04 09:27:23;;;;;;;1.30;0.75;;;5.60;99.90;;;;;;5114322;28;20427;-53
2023/04/04 09:29:51;;;;;;;1.50;0.75;;;5.90;98.20;;;;;;5112716;28;20855;-55
2023/04/04 09:32:23;;;;;;;1.88;0.70;;;6.10;98.20;;;;;;5113327;28;20666;-55
2023/04/04 09:34:53;;;;;;;1.30;0.70;;;6.30;98.80;;;;;;5115561;28;20415;-55
2023/04/04 09:37:20;;;;;;;0.90;0.60;;;6.30;97.50;;;;;;5115990;28;20450;-54
2023/04/04 09:39:48;;;;;;;1.00;0.60;;;6.20;95.70;;;;;;5112005;28;20735;-52
2023/04/04 09:42:15;;;;;;;1.27;0.70;;;6.20;95.00;;;;;;5115362;28;20505;-55
2023/04/04 09:44:44;;;;;;;1.30;0.60;;;6.40;95.60;;;;;;5114690;28;20416;-56
2023/04/04 09:47:24;;;;;;;0.90;0.60;;;6.30;95.50;;;;;;5114517;28;20430;-54
2023/04/04 09:49:52;;;;;;;1.00;0.70;;;6.20;95.00;;;;;;5115262;28;20840;-54
2023/04/04 09:52:20;;;;;;;1.13;0.60;;;6.10;93.90;;;;;;5114100;28;20769;-53
2023/04/04 09:54:56;;;;;;;1.10;0.60;;;6.30;94.20;;;;;;5114560;28;20465;-54
2023/04/04 09:57:24;;;;;;;2.10;0.70;;;6.50;94.10;;;;;;5109793;28;20877;-55
2023/04/04 09:59:52;;;;;;;1.20;0.70;;;6.90;93.60;;;;;;5097950;28;20414;-55
2023/04/04 10:02:19;;;;;;;1.00;0.70;;;7.00;93.10;;;;;;5093729;28;20444;-56
2023/04/04 10:04:47;;;;;;;1.20;0.70;;;7.40;92.30;;;;;;5093228;28;20421;-53
2023/04/04 10:07:14;;;;;;;0.80;0.60;;;7.60;91.90;;;;;;5099789;28;20442;-55
2023/04/04 10:09:42;;;;;;;0.90;0.70;;;7.70;89.40;;;;;;5113920;28;20468;-54
2023/04/04 10:12:12;;;;;;;1.30;0.70;;;7.80;88.40;;;;;;5106166;28;20437;-56
2023/04/04 10:14:39;;;;;;;1.20;0.70;;;8.00;86.80;;;;;;5094475;28;20523;-56
2023/04/04 10:17:12;;;;;;;1.00;0.60;;;8.10;86.10;;;;;;5091396;28;20898;-55
2023/04/04 10:19:39;;;;;;;1.33;0.70;;;8.40;83.60;;;;;;5110002;28;20503;-55
2023/04/04 10:22:07;;;;;;;1.40;0.70;;;8.20;84.50;;;;;;5114762;28;20735;-56
2023/04/04 10:24:34;;;;;;;1.08;0.70;;;8.70;84.40;;;;;;5114492;28;20416;-55
2023/04/04 10:27:01;;;;;;;1.10;0.70;;;9.00;78.70;;;;;;5115577;28;20492;-56
2023/04/04 10:29:28;;;;;;;1.00;0.68;;;9.20;77.00;;;;;;5113548;28;20950;-53
2023/04/04 10:32:02;;;;;;;0.98;0.60;;;8.90;77.90;;;;;;5113877;28;20432;-56
2023/04/04 10:34:38;;;;;;;1.70;0.70;;;8.90;77.60;;;;;;5112778;28;20506;-53
2023/04/04 10:37:08;;;;;;;1.10;0.70;;;9.00;75.30;;;;;;5114992;28;20428;-56
2023/04/04 10:39:41;;;;;;;1.70;0.80;;;9.20;74.90;;;;;;5106734;28;20431;-55
2023/04/04 10:42:10;;;;;;;1.00;0.60;;;8.90;73.60;;;;;;5094574;28;20502;-58
2023/04/04 10:44:39;;;;;;;1.15;0.65;;;8.80;74.10;;;;;;5094312;28;20782;-57
2023/04/04 10:47:15;;;;;;;1.20;0.70;;;9.00;73.10;;;;;;5114114;28;20428;-56
2023/04/04 10:49:45;;;;;;;1.60;0.80;;;9.30;73.50;;;;;;5114325;28;20424;-57
2023/04/04 10:52:13;;;;;;;1.00;0.60;;;9.40;71.10;;;;;;5092855;28;20871;-56
2023/04/04 10:54:42;;;;;;;0.90;0.70;;;9.30;70.50;;;;;;5091666;28;20418;-60
2023/04/04 10:57:10;;;;;;;1.38;0.70;;;9.70;72.30;;;;;;5092029;28;20635;-60
2023/04/04 10:59:58;;;;;;;1.40;0.80;;;9.40;68.90;;;;;;5102460;28;20443;-57
2023/04/04 11:02:45;;;;;;;2.10;0.80;;;9.60;68.40;;;;;;5110625;28;20816;-57
2023/04/04 11:05:18;;;;;;;1.60;0.70;;;9.80;69.00;;;;;;5114655;28;20412;-55
2023/04/04 11:07:46;;;;;;;1.38;0.70;;;10.30;67.30;;;;;;5101981;28;20434;-56
2023/04/04 11:10:15;;;;;;;1.10;0.70;;;10.60;61.90;;;;;;5093161;28;20426;-57
2023/04/04 11:12:46;;;;;;;1.27;0.70;;;10.90;63.50;;;;;;5096462;28;20780;-59
2023/04/04 11:15:15;;;;;;;1.90;0.80;;;10.90;61.80;;;;;;5094094;28;20909;-56
2023/04/04 11:17:53;;;;;;;1.70;0.70;;;11.00;61.00;;;;;;5094190;28;20437;-59
2023/04/04 11:20:23;;;;;;;1.20;0.70;;;11.20;62.00;;;;;;5099620;28;20434;-55
2023/04/04 11:22:51;;;;;;;1.30;0.80;;;11.40;59.30;;;;;;5114712;28;20459;-57
2023/04/04 11:25:36;;;;;;;1.20;0.90;;;11.30;58.30;;;;;;5113646;28;20448;-57
2023/04/04 11:28:08;;;;;;;2.10;0.70;;;11.50;59.20;;;;;;5108944;28;20445;-63
2023/04/04 11:30:43;;;;;;;1.30;0.73;;;11.20;56.30;;;;;;5092996;28;20421;-58
2023/04/04 11:33:13;;;;;;;1.35;0.80;;;11.20;56.50;;;;;;5093077;28;20449;-60
2023/04/04 11:35:48;;;;;;;0.90;0.70;;;11.00;55.00;;;;;;5092472;28;20449;-58
2023/04/04 11:38:16;;;;;;;0.97;0.73;;;10.80;55.90;;;;;;5090592;28;20522;-59
2023/04/04 11:40:53;;;;;;;1.70;0.70;;;10.60;54.60;;;;;;5089716;28;20779;-57
2023/04/04 11:43:21;;;;;;;0.90;0.60;;;10.60;56.80;;;;;;5089958;28;20410;-59
2023/04/04 11:45:49;;;;;;;1.10;0.70;;;10.80;56.10;;;;;;5090695;28;20421;-59
2023/04/04 11:48:18;;;;;;;1.25;0.70;;;11.10;56.50;;;;;;5102945;28;20430;-59
2023/04/04 11:50:51;;;;;;;1.20;0.80;;;11.00;54.00;;;;;;5111009;28;20424;-58
2023/04/04 11:53:19;;;;;;;1.10;0.80;;;11.10;54.60;;;;;;5109911;28;20419;-59
2023/04/04 11:55:50;;;;;;;1.10;0.80;;;10.70;53.10;;;;;;5112640;28;20424;-59
2023/04/04 11:58:19;;;;;;;1.05;0.70;;;10.50;54.40;;;;;;5105487;28;20469;-59
2023/04/04 12:00:46;;;;;;;1.10;0.75;;;10.80;54.30;;;;;;5112082;28;20407;-58
2023/04/04 12:03:17;;;;;;;1.30;0.80;;;11.30;54.50;;;;;;5111525;28;20423;-59
2023/04/04 12:05:45;;;;;;;1.77;0.90;;;11.40;54.30;;;;;;5112862;28;20438;-59
2023/04/04 12:08:16;;;;;;;0.93;0.77;;;11.30;52.70;;;;;;5110512;28;20701;-59
2023/04/04 12:10:44;;;;;;;1.80;0.70;;;11.60;52.90;;;;;;5109448;28;20424;-60
2023/04/04 12:13:12;;;;;;;1.33;0.80;;;11.90;53.10;;;;;;5108302;28;20420;-60
2023/04/04 12:15:39;;;;;;;1.80;0.90;;;12.20;52.10;;;;;;5112111;28;20419;-59
2023/04/04 12:18:09;;;;;;;1.10;0.80;;;11.90;51.50;;;;;;5112108;28;20747;-60
2023/04/04 12:20:39;;;;;;;1.20;0.70;;;12.20;51.60;;;;;;5111633;28;20408;-59
2023/04/04 12:23:07;;;;;;;1.00;0.80;;;12.30;50.20;;;;;;5112328;28;20424;-60
2023/04/04 12:25:38;;;;;;;0.90;0.70;;;12.40;50.40;;;;;;5113351;28;20500;-59
2023/04/04 12:28:06;;;;;;;0.90;0.70;;;12.00;49.10;;;;;;5113254;28;20493;-59
2023/04/04 12:30:34;;;;;;;1.35;0.70;;;11.80;51.00;;;;;;5109031;28;20424;-59
2023/04/04 12:33:01;;;;;;;1.50;0.70;;;11.60;50.90;;;;;;5108869;28;20421;-61
2023/04/04 12:35:29;;;;;;;1.70;0.70;;;11.70;51.40;;;;;;5112315;28;20408;-59
2023/04/04 12:38:06;;;;;;;1.10;0.70;;;11.90;51.40;;;;;;5113023;28;20731;-59
2023/04/04 12:40:37;;;;;;;1.05;0.70;;;11.80;49.70;;;;;;5109545;28;20812;-59
2023/04/04 12:43:05;;;;;;;0.90;0.70;;;11.50;50.70;;;;;;5110348;28;20747;-59
2023/04/04 12:45:33;;;;;;;1.00;0.70;;;11.30;51.60;;;;;;5112727;28;20485;-59
2023/04/04 12:48:00;;;;;;;1.08;0.70;;;11.40;51.90;;;;;;5112133;28;20720;-59
2023/04/04 12:50:28;;;;;;;1.23;0.70;;;11.40;52.50;;;;;;5109501;28;20486;-59
2023/04/04 12:52:56;;;;;;;1.15;0.80;;;11.40;51.20;;;;;;5110329;28;20483;-59
2023/04/04 12:55:23;;;;;;;1.20;0.80;;;11.70;50.80;;;;;;5110300;28;20936;-60
2023/04/04 12:57:52;;;;;;;1.40;0.70;;;12.10;50.40;;;;;;5111352;28;20434;-60
2023/04/04 13:00:22;;;;;;;1.70;0.80;;;12.00;50.30;;;;;;5109778;28;20728;-60